createdAt,value
2023-05-10T00:01:50.819Z,19.77
2023-05-10T00:04:17.845Z,19.92
2023-05-10T00:06:44.917Z,20.04
2023-05-10T00:09:11.897Z,19.71
2023-05-10T00:11:38.889Z,19.85
2023-05-10T00:14:05.978Z,19.61
2023-05-10T00:16:33.061Z,19.55
2023-05-10T00:19:00.124Z,18.97
2023-05-10T00:21:27.716Z,19.26
2023-05-10T00:23:54.708Z,19.18
2023-05-10T00:26:22.255Z,19.08
2023-05-10T00:28:52.718Z,19.32
2023-05-10T00:31:19.842Z,19.20
2023-05-10T00:33:46.791Z,19.11
2023-05-10T00:36:14.105Z,19.21
2023-05-10T00:38:42.063Z,19.17
2023-05-10T00:41:09.526Z,19.26
2023-05-10T00:43:38.567Z,19.39
2023-05-10T00:46:05.946Z,19.25
2023-05-10T00:48:32.978Z,19.08
2023-05-10T00:51:00.059Z,18.78
2023-05-10T00:53:27.044Z,19.04
2023-05-10T00:55:54.152Z,19.19
2023-05-10T00:58:21.375Z,19.16
2023-05-10T01:00:49.550Z,19.02
2023-05-10T01:03:16.531Z,19.02
2023-05-10T01:05:43.846Z,19.05
2023-05-10T01:08:10.815Z,18.78
2023-05-10T01:10:37.804Z,18.75
2023-05-10T01:13:04.846Z,18.93
2023-05-10T01:15:32.074Z,18.85
2023-05-10T01:17:59.153Z,18.66
2023-05-10T01:20:26.436Z,18.79
2023-05-10T01:23:23.938Z,19.03
2023-05-10T01:26:09.143Z,19.01
2023-05-10T01:29:10.060Z,18.92
2023-05-10T01:31:36.966Z,18.95
2023-05-10T01:34:08.524Z,18.79
2023-05-10T01:36:46.882Z,19.07
2023-05-10T01:39:29.142Z,18.95
2023-05-10T01:41:59.794Z,18.96
2023-05-10T01:44:40.488Z,18.98
2023-05-10T01:47:11.292Z,18.98
2023-05-10T01:49:39.992Z,18.93
2023-05-10T01:52:12.045Z,18.78
2023-05-10T01:54:44.234Z,18.77
2023-05-10T01:57:13.196Z,18.89
2023-05-10T01:59:43.042Z,19.13
2023-05-10T02:02:12.929Z,19.06
2023-05-10T02:04:40.835Z,18.68
2023-05-10T02:07:08.059Z,18.39
2023-05-10T02:09:35.074Z,18.54
2023-05-10T02:12:03.658Z,18.77
2023-05-10T02:14:35.320Z,18.82
2023-05-10T02:17:03.409Z,18.82
2023-05-10T02:19:30.467Z,18.86
2023-05-10T02:21:58.505Z,18.50
2023-05-10T02:24:26.502Z,18.69
2023-05-10T02:26:55.253Z,18.66
2023-05-10T02:29:24.301Z,18.83
2023-05-10T02:31:52.757Z,18.55
2023-05-10T02:34:19.908Z,18.49
2023-05-10T02:36:47.278Z,18.69
2023-05-10T02:39:14.656Z,18.63
2023-05-10T02:41:42.466Z,18.64
2023-05-10T02:44:10.170Z,18.76
2023-05-10T02:46:38.653Z,18.82
2023-05-10T02:49:05.797Z,18.81
2023-05-10T02:51:34.719Z,18.95
2023-05-10T02:54:05.109Z,19.02
2023-05-10T02:56:36.140Z,19.01
2023-05-10T02:59:03.186Z,19.05
2023-05-10T03:01:30.545Z,19.00
2023-05-10T03:03:58.634Z,19.05
2023-05-10T03:06:25.882Z,19.16
2023-05-10T03:08:52.864Z,18.81
2023-05-10T03:11:26.222Z,18.95
2023-05-10T03:14:32.198Z,18.94
2023-05-10T03:17:32.223Z,18.92
2023-05-10T03:20:03.428Z,18.91
2023-05-10T03:22:37.458Z,18.94
2023-05-10T03:25:09.453Z,18.93
2023-05-10T03:27:36.879Z,18.96
2023-05-10T03:30:04.374Z,18.93
2023-05-10T03:32:35.453Z,18.84
2023-05-10T03:35:07.335Z,18.61
2023-05-10T03:37:34.365Z,18.55
2023-05-10T03:40:01.407Z,18.55
2023-05-10T03:42:30.616Z,18.29
2023-05-10T03:44:57.702Z,18.06
2023-05-10T03:47:25.564Z,18.19
2023-05-10T03:49:52.973Z,18.41
2023-05-10T03:52:20.145Z,18.23
2023-05-10T03:54:47.173Z,17.94
2023-05-10T03:57:14.168Z,17.78
2023-05-10T03:59:41.358Z,17.91
2023-05-10T04:02:08.392Z,17.78
2023-05-10T04:04:36.899Z,17.47
2023-05-10T04:07:03.977Z,17.71
2023-05-10T04:09:31.044Z,17.99
2023-05-10T04:11:58.067Z,18.07
2023-05-10T04:14:25.069Z,18.26
2023-05-10T04:16:52.350Z,18.22
2023-05-10T04:19:19.396Z,18.37
2023-05-10T04:21:46.471Z,18.50
2023-05-10T04:24:13.613Z,18.51
2023-05-10T04:26:40.620Z,17.13
2023-05-10T04:29:07.730Z,16.80
2023-05-10T04:31:35.310Z,17.02
2023-05-10T04:34:02.316Z,17.04
2023-05-10T04:36:29.868Z,16.73
2023-05-10T04:38:56.927Z,16.63
2023-05-10T04:41:23.995Z,16.02
2023-05-10T04:43:51.210Z,16.32
2023-05-10T04:46:18.430Z,16.14
2023-05-10T04:48:45.581Z,16.52
2023-05-10T04:51:12.757Z,16.95
2023-05-10T04:53:39.871Z,16.75
2023-05-10T04:56:07.281Z,16.96
2023-05-10T04:58:34.693Z,16.63
2023-05-10T05:01:11.653Z,17.24
2023-05-10T05:03:38.613Z,17.24
2023-05-10T05:06:05.933Z,16.47
2023-05-10T05:08:33.134Z,16.91
2023-05-10T05:11:00.533Z,17.02
2023-05-10T05:13:27.791Z,15.59
2023-05-10T05:15:55.618Z,16.21
2023-05-10T05:18:22.742Z,15.97
2023-05-10T05:20:49.690Z,16.32
2023-05-10T05:23:16.754Z,16.04
2023-05-10T05:25:43.672Z,15.86
2023-05-10T05:28:10.769Z,15.78
2023-05-10T05:30:37.945Z,15.93
2023-05-10T05:33:05.269Z,15.62
2023-05-10T05:35:32.367Z,15.90
2023-05-10T05:37:59.387Z,16.21
2023-05-10T05:40:26.451Z,15.58
2023-05-10T05:42:53.486Z,16.06
2023-05-10T05:45:20.684Z,16.06
2023-05-10T05:47:48.276Z,15.49
2023-05-10T05:50:15.591Z,15.45
2023-05-10T05:52:42.615Z,15.50
2023-05-10T05:55:09.658Z,15.94
2023-05-10T05:57:36.706Z,15.86
2023-05-10T06:00:04.159Z,15.02
2023-05-10T06:02:39.801Z,15.00
2023-05-10T06:05:07.686Z,15.25
2023-05-10T06:07:34.698Z,15.75
2023-05-10T06:10:01.989Z,15.79
2023-05-10T06:12:29.170Z,15.34
2023-05-10T06:14:56.121Z,15.48
2023-05-10T06:17:23.506Z,15.28
2023-05-10T06:19:50.608Z,15.12
2023-05-10T06:22:17.646Z,15.48
2023-05-10T06:24:44.683Z,15.39
2023-05-10T06:27:11.672Z,14.75
2023-05-10T06:29:38.635Z,14.92
2023-05-10T06:32:05.586Z,14.75
2023-05-10T06:34:32.704Z,14.89
2023-05-10T06:36:59.774Z,14.98
2023-05-10T06:39:26.752Z,15.18
2023-05-10T06:41:53.725Z,14.08
2023-05-10T06:44:20.781Z,14.92
2023-05-10T06:46:48.016Z,15.25
2023-05-10T06:49:15.057Z,14.65
2023-05-10T06:51:42.016Z,15.57
2023-05-10T06:54:08.946Z,15.45
2023-05-10T06:56:36.444Z,16.02
2023-05-10T06:59:03.997Z,15.31
2023-05-10T07:01:31.148Z,15.71
2023-05-10T07:03:58.111Z,15.68
2023-05-10T07:06:32.752Z,15.93
2023-05-10T07:09:01.461Z,14.97
2023-05-10T07:11:28.479Z,15.98
2023-05-10T07:13:55.503Z,15.86
2023-05-10T07:16:22.925Z,16.39
2023-05-10T07:18:51.462Z,16.34
2023-05-10T07:21:18.463Z,16.52
2023-05-10T07:23:45.489Z,16.28
2023-05-10T07:26:12.733Z,16.77
2023-05-10T07:28:40.172Z,15.56
2023-05-10T07:31:07.206Z,15.37
2023-05-10T07:33:34.239Z,16.12
2023-05-10T07:36:01.532Z,16.57
2023-05-10T07:38:28.588Z,16.56
2023-05-10T07:40:55.792Z,16.56
2023-05-10T07:43:22.837Z,16.37
2023-05-10T07:45:49.791Z,16.98
2023-05-10T07:48:16.809Z,16.69
2023-05-10T07:50:43.763Z,16.95
2023-05-10T07:53:11.003Z,16.85
2023-05-10T07:55:37.950Z,16.72
2023-05-10T07:58:05.080Z,16.82
2023-05-10T08:00:32.227Z,16.53
2023-05-10T08:02:59.357Z,17.17
2023-05-10T08:05:26.571Z,17.48
2023-05-10T08:07:53.549Z,17.72
2023-05-10T08:10:20.557Z,17.50
2023-05-10T08:12:47.538Z,17.59
2023-05-10T08:15:14.661Z,17.80
2023-05-10T08:17:42.074Z,17.80
2023-05-10T08:20:09.440Z,17.69
2023-05-10T08:22:36.831Z,17.95
2023-05-10T08:25:05.064Z,17.94
2023-05-10T08:27:33.094Z,17.55
2023-05-10T08:30:00.154Z,18.44
2023-05-10T08:32:27.238Z,18.63
2023-05-10T08:34:54.242Z,18.70
2023-05-10T08:37:21.240Z,18.72
2023-05-10T08:39:49.031Z,18.20
2023-05-10T08:42:17.938Z,18.49
2023-05-10T08:44:44.942Z,18.81
2023-05-10T08:47:12.056Z,18.64
2023-05-10T08:49:39.300Z,18.37
2023-05-10T08:52:06.644Z,18.27
2023-05-10T08:54:34.260Z,17.82
2023-05-10T08:57:01.340Z,17.69
2023-05-10T08:59:28.580Z,17.27
2023-05-10T09:01:56.643Z,17.06
2023-05-10T09:04:23.684Z,16.31
2023-05-10T09:06:50.720Z,16.67
2023-05-10T09:09:18.656Z,16.97
2023-05-10T09:11:46.067Z,16.25
2023-05-10T09:14:13.559Z,16.27
2023-05-10T09:16:41.166Z,16.90
2023-05-10T09:19:09.712Z,16.52
2023-05-10T09:21:39.275Z,17.30
2023-05-10T09:24:07.332Z,17.86
2023-05-10T09:26:34.679Z,17.92
2023-05-10T09:29:02.346Z,17.99
2023-05-10T09:32:04.770Z,17.64
2023-05-10T09:34:33.065Z,18.12
2023-05-10T09:37:04.508Z,17.84
2023-05-10T09:39:35.660Z,17.71
2023-05-10T09:42:06.470Z,17.52
2023-05-10T09:44:33.904Z,17.38
2023-05-10T09:47:02.000Z,17.49
2023-05-10T09:49:29.108Z,18.51
2023-05-10T09:52:06.227Z,18.03
2023-05-10T09:54:33.634Z,18.39
2023-05-10T09:57:00.851Z,18.61
2023-05-10T09:59:28.480Z,18.51
2023-05-10T10:02:04.523Z,16.92
2023-05-10T10:04:31.780Z,17.49
2023-05-10T10:07:05.536Z,18.08
2023-05-10T10:09:32.979Z,18.67
2023-05-10T10:12:03.433Z,17.91
2023-05-10T10:14:30.672Z,17.96
2023-05-10T10:17:07.320Z,18.12
2023-05-10T10:19:36.893Z,17.80
2023-05-10T10:22:04.335Z,17.31
2023-05-10T10:24:31.424Z,17.59
2023-05-10T10:27:05.401Z,17.32
2023-05-10T10:29:45.568Z,17.28
2023-05-10T10:32:29.044Z,17.89
2023-05-10T10:34:56.245Z,17.57
2023-05-10T10:37:23.307Z,17.71
2023-05-10T10:39:51.458Z,17.97
2023-05-10T10:42:47.980Z,18.05
2023-05-10T10:45:15.155Z,18.30
2023-05-10T10:47:44.249Z,18.43
2023-05-10T10:50:13.904Z,19.18
2023-05-10T10:52:41.810Z,19.38
2023-05-10T10:55:19.951Z,19.31
2023-05-10T10:57:48.225Z,19.43
2023-05-10T11:00:34.119Z,19.96
2023-05-10T11:03:14.598Z,19.98
2023-05-10T11:05:48.362Z,19.18
2023-05-10T11:08:34.958Z,18.64
2023-05-10T11:11:10.208Z,19.40
2023-05-10T11:13:41.932Z,20.14
2023-05-10T11:16:12.723Z,20.41
2023-05-10T11:18:39.850Z,20.06
2023-05-10T11:21:07.379Z,20.40
2023-05-10T11:23:49.567Z,19.72
2023-05-10T11:26:16.532Z,19.79
2023-05-10T11:28:47.356Z,19.98
2023-05-10T11:31:15.188Z,20.37
2023-05-10T11:33:45.352Z,20.37
2023-05-10T11:36:13.699Z,20.21
2023-05-10T11:38:40.792Z,18.62
2023-05-10T11:41:12.613Z,19.31
2023-05-10T11:43:40.123Z,19.72
2023-05-10T11:46:12.186Z,19.93
2023-05-10T11:48:43.027Z,19.38
2023-05-10T11:51:09.897Z,19.79
2023-05-10T11:53:36.818Z,19.61
2023-05-10T11:56:06.781Z,18.81
2023-05-10T11:58:34.007Z,18.83
2023-05-10T12:01:01.262Z,19.20
2023-05-10T12:03:29.019Z,18.83
2023-05-10T12:05:56.486Z,18.40
2023-05-10T12:08:27.232Z,18.61
2023-05-10T12:10:54.613Z,18.92
2023-05-10T12:13:22.143Z,18.96
2023-05-10T12:15:49.169Z,19.10
2023-05-10T12:18:16.388Z,18.95
2023-05-10T12:20:43.880Z,18.57
2023-05-10T12:23:11.120Z,18.53
2023-05-10T12:25:38.473Z,18.27
2023-05-10T12:28:06.979Z,18.12
2023-05-10T12:30:34.723Z,18.23
2023-05-10T12:33:11.771Z,17.85
2023-05-10T12:35:45.513Z,18.39
2023-05-10T12:38:33.639Z,18.14
2023-05-10T12:41:01.570Z,18.53
2023-05-10T12:43:28.728Z,18.39
2023-05-10T12:45:56.093Z,18.85
2023-05-10T12:48:23.173Z,18.78
2023-05-10T12:50:50.217Z,18.73
2023-05-10T12:53:17.662Z,19.00
2023-05-10T12:55:45.017Z,19.49
2023-05-10T12:58:15.757Z,19.57
2023-05-10T13:00:48.191Z,19.20
2023-05-10T13:03:16.697Z,18.91
2023-05-10T13:05:44.335Z,18.93
2023-05-10T13:08:11.590Z,18.75
2023-05-10T13:10:38.593Z,19.15
2023-05-10T13:13:06.340Z,18.85
2023-05-10T13:15:33.325Z,19.14
2023-05-10T13:18:01.246Z,18.97
2023-05-10T13:20:28.411Z,19.05
2023-05-10T13:22:55.598Z,19.79
2023-05-10T13:25:22.566Z,20.20
2023-05-10T13:27:49.507Z,20.41
2023-05-10T13:30:16.649Z,20.77
2023-05-10T13:32:43.770Z,20.75
2023-05-10T13:35:10.881Z,20.44
2023-05-10T13:37:39.091Z,20.57
2023-05-10T13:40:07.209Z,18.98
2023-05-10T13:42:34.574Z,19.50
2023-05-10T13:45:04.863Z,19.94
2023-05-10T13:47:33.300Z,20.12
2023-05-10T13:50:00.294Z,19.21
2023-05-10T13:52:27.595Z,18.91
2023-05-10T13:54:56.303Z,18.02
2023-05-10T13:57:24.174Z,18.95
2023-05-10T13:59:51.423Z,18.81
2023-05-10T14:02:18.336Z,19.24
2023-05-10T14:04:45.427Z,19.31
2023-05-10T14:07:12.454Z,19.18
2023-05-10T14:09:39.508Z,17.39
2023-05-10T14:12:06.550Z,17.97
2023-05-10T14:14:33.495Z,18.85
2023-05-10T14:17:01.244Z,19.05
2023-05-10T14:19:28.865Z,18.61
2023-05-10T14:21:55.887Z,18.54
2023-05-10T14:24:22.883Z,17.71
2023-05-10T14:26:49.901Z,17.03
2023-05-10T14:29:16.852Z,16.58
2023-05-10T14:31:43.819Z,15.58
2023-05-10T14:34:11.051Z,15.93
2023-05-10T14:36:37.982Z,16.33
2023-05-10T14:39:05.184Z,16.44
2023-05-10T14:41:32.150Z,16.40
2023-05-10T14:43:59.177Z,16.80
2023-05-10T14:46:26.332Z,16.41
2023-05-10T14:48:53.445Z,16.22
2023-05-10T14:51:22.855Z,16.71
2023-05-10T14:53:50.562Z,17.90
2023-05-10T14:56:17.647Z,18.36
2023-05-10T14:58:44.676Z,18.19
2023-05-10T15:01:11.983Z,17.67
2023-05-10T15:03:39.543Z,17.35
2023-05-10T15:06:07.176Z,17.66
2023-05-10T15:08:34.198Z,17.61
2023-05-10T15:11:01.259Z,17.83
2023-05-10T15:13:28.304Z,18.30
2023-05-10T15:15:55.853Z,18.49
2023-05-10T15:18:25.359Z,18.70
2023-05-10T15:20:52.442Z,18.48
2023-05-10T15:23:19.484Z,17.95
2023-05-10T15:25:46.526Z,18.25
2023-05-10T15:28:14.052Z,18.47
2023-05-10T15:30:41.057Z,18.57
2023-05-10T15:33:08.784Z,18.64
2023-05-10T15:35:36.861Z,18.68
2023-05-10T15:38:03.848Z,18.74
2023-05-10T15:40:30.888Z,18.71
2023-05-10T15:42:58.405Z,18.63
2023-05-10T15:45:25.721Z,18.73
2023-05-10T15:47:52.904Z,18.80
2023-05-10T15:50:19.961Z,18.83
2023-05-10T15:52:47.020Z,18.64
2023-05-10T15:55:14.431Z,18.41
2023-05-10T15:57:42.678Z,18.25
2023-05-10T16:00:10.480Z,18.26
2023-05-10T16:02:41.174Z,18.36
2023-05-10T16:05:09.675Z,18.26
2023-05-10T16:07:36.619Z,18.44
2023-05-10T16:10:06.526Z,18.57
2023-05-10T16:12:33.671Z,18.77
2023-05-10T16:15:00.723Z,18.55
2023-05-10T16:17:27.778Z,18.60
2023-05-10T16:19:55.142Z,18.38
2023-05-10T16:22:22.500Z,18.31
2023-05-10T16:24:49.608Z,18.38
2023-05-10T16:27:17.520Z,18.30
2023-05-10T16:29:44.559Z,18.14
2023-05-10T16:32:11.725Z,18.36
2023-05-10T16:34:38.776Z,17.98
2023-05-10T16:37:05.822Z,16.81
2023-05-10T16:39:32.847Z,16.32
2023-05-10T16:41:59.948Z,16.72
2023-05-10T16:44:27.055Z,16.67
2023-05-10T16:46:54.980Z,16.38
2023-05-10T16:49:23.761Z,16.32
2023-05-10T16:51:52.889Z,15.97
2023-05-10T16:54:21.429Z,16.35
2023-05-10T16:56:48.436Z,16.28
2023-05-10T16:59:16.414Z,16.24
2023-05-10T17:01:43.649Z,16.67
2023-05-10T17:04:10.749Z,16.91
2023-05-10T17:06:37.849Z,17.00
2023-05-10T17:09:05.802Z,17.10
2023-05-10T17:11:32.907Z,17.01
2023-05-10T17:14:01.444Z,17.03
2023-05-10T17:16:29.681Z,16.31
2023-05-10T17:18:56.896Z,16.85
2023-05-10T17:21:23.914Z,16.94
2023-05-10T17:23:50.957Z,17.01
2023-05-10T17:26:17.944Z,16.94
2023-05-10T17:28:45.241Z,16.63
2023-05-10T17:31:12.266Z,16.64
2023-05-10T17:33:39.449Z,16.46
2023-05-10T17:36:06.684Z,16.63
2023-05-10T17:38:33.709Z,16.34
2023-05-10T17:41:00.762Z,16.35
2023-05-10T17:43:27.808Z,15.93
2023-05-10T17:45:54.768Z,16.11
2023-05-10T17:48:22.130Z,16.23
2023-05-10T17:50:52.606Z,16.03
2023-05-10T17:53:19.636Z,16.10
2023-05-10T17:55:47.064Z,15.81
2023-05-10T17:58:14.175Z,15.88
2023-05-10T18:00:41.319Z,16.29
2023-05-10T18:03:08.836Z,16.15
2023-05-10T18:05:37.489Z,16.29
2023-05-10T18:08:05.391Z,16.25
2023-05-10T18:10:32.629Z,16.42
2023-05-10T18:13:00.720Z,15.88
2023-05-10T18:15:28.119Z,15.72
2023-05-10T18:17:56.750Z,16.02
2023-05-10T18:20:24.042Z,16.27
2023-05-10T18:22:51.391Z,16.46
2023-05-10T18:25:19.207Z,16.24
2023-05-10T18:27:46.824Z,15.60
2023-05-10T18:30:14.544Z,15.94
2023-05-10T18:32:41.867Z,16.02
2023-05-10T18:35:09.436Z,16.08
2023-05-10T18:37:36.662Z,15.49
2023-05-10T18:40:05.123Z,15.63
2023-05-10T18:42:32.801Z,15.69
2023-05-10T18:44:59.844Z,15.83
2023-05-10T18:47:27.658Z,15.75
2023-05-10T18:49:55.430Z,15.49
2023-05-10T18:52:22.983Z,15.39
2023-05-10T18:54:50.588Z,15.73
2023-05-10T18:57:18.159Z,15.98
2023-05-10T18:59:45.618Z,16.13
2023-05-10T19:02:13.866Z,16.23
2023-05-10T19:04:41.088Z,16.50
2023-05-10T19:07:09.898Z,16.41
2023-05-10T19:09:37.315Z,16.52
2023-05-10T19:12:04.521Z,16.56
2023-05-10T19:14:31.753Z,16.58
2023-05-10T19:17:00.321Z,16.01
2023-05-10T19:19:30.549Z,15.82
2023-05-10T19:21:58.540Z,15.52
2023-05-10T19:24:27.458Z,16.00
2023-05-10T19:26:56.802Z,16.23
2023-05-10T19:29:25.598Z,16.34
2023-05-10T19:31:53.898Z,16.24
2023-05-10T19:34:21.322Z,16.06
2023-05-10T19:36:48.675Z,15.34
2023-05-10T19:39:15.791Z,15.43
2023-05-10T19:41:42.990Z,14.71
2023-05-10T19:44:10.315Z,15.36
2023-05-10T19:46:37.436Z,15.30
2023-05-10T19:49:04.565Z,15.36
2023-05-10T19:51:31.676Z,15.83
2023-05-10T19:53:58.784Z,15.61
2023-05-10T19:56:27.039Z,16.00
2023-05-10T19:58:54.167Z,15.84
2023-05-10T20:01:21.359Z,15.65
2023-05-10T20:03:48.458Z,15.80
2023-05-10T20:06:15.775Z,15.85
2023-05-10T20:08:43.008Z,16.01
2023-05-10T20:11:10.250Z,15.80
2023-05-10T20:13:37.341Z,16.02
2023-05-10T20:16:06.175Z,16.18
2023-05-10T20:18:33.633Z,16.20
2023-05-10T20:21:00.840Z,15.81
2023-05-10T20:23:27.982Z,15.85
2023-05-10T20:25:55.260Z,15.71
2023-05-10T20:28:23.767Z,15.85
2023-05-10T20:30:53.136Z,15.65
2023-05-10T20:33:21.570Z,16.00
2023-05-10T20:35:50.227Z,15.41
2023-05-10T20:38:18.227Z,15.60
2023-05-10T20:40:45.687Z,15.68
2023-05-10T20:43:12.958Z,15.64
2023-05-10T20:45:40.051Z,15.77
2023-05-10T20:48:07.831Z,15.83
2023-05-10T20:50:35.171Z,16.11
2023-05-10T20:53:02.203Z,15.93
2023-05-10T20:55:29.310Z,15.38
2023-05-10T20:57:56.363Z,14.59
2023-05-10T21:00:23.609Z,15.37
2023-05-10T21:02:50.810Z,15.84
2023-05-10T21:05:18.443Z,16.07
2023-05-10T21:07:45.485Z,16.17
2023-05-10T21:10:12.779Z,16.27
2023-05-10T21:12:39.770Z,16.35
2023-05-10T21:15:07.621Z,16.31
2023-05-10T21:17:34.698Z,16.38
2023-05-10T21:20:01.763Z,16.34
2023-05-10T21:22:28.768Z,16.30
2023-05-10T21:24:55.794Z,15.43
2023-05-10T21:27:22.945Z,15.82
2023-05-10T21:29:50.100Z,15.89
2023-05-10T21:32:17.133Z,15.64
2023-05-10T21:34:44.208Z,16.00
2023-05-10T21:37:11.231Z,16.04
2023-05-10T21:39:38.365Z,15.95
2023-05-10T21:42:05.451Z,15.89
2023-05-10T21:44:32.626Z,15.86
2023-05-10T21:46:59.641Z,15.95
2023-05-10T21:49:27.054Z,15.91
2023-05-10T21:51:54.033Z,16.11
2023-05-10T21:54:21.077Z,16.21
2023-05-10T21:56:48.616Z,16.33
2023-05-10T21:59:15.646Z,16.08
2023-05-10T22:01:43.957Z,15.65
2023-05-10T22:04:11.367Z,15.86
2023-05-10T22:06:38.326Z,15.99
2023-05-10T22:09:05.354Z,15.87
2023-05-10T22:11:32.433Z,15.86
2023-05-10T22:13:59.471Z,15.89
2023-05-10T22:16:26.673Z,15.98
2023-05-10T22:18:54.610Z,15.88
2023-05-10T22:21:21.815Z,15.55
2023-05-10T22:23:48.804Z,15.34
2023-05-10T22:26:15.745Z,14.89
2023-05-10T22:28:42.785Z,15.31
2023-05-10T22:31:11.523Z,15.53
2023-05-10T22:33:38.814Z,15.52
2023-05-10T22:36:06.377Z,15.68
2023-05-10T22:38:33.362Z,15.65
2023-05-10T22:41:00.740Z,15.62
2023-05-10T22:43:27.698Z,15.46
2023-05-10T22:45:54.657Z,15.33
2023-05-10T22:48:22.152Z,15.49
2023-05-10T22:50:49.100Z,15.62
2023-05-10T22:53:16.410Z,15.66
2023-05-10T22:55:43.452Z,15.78
2023-05-10T22:58:10.597Z,15.68
2023-05-10T23:00:37.964Z,15.68
2023-05-10T23:03:05.507Z,15.82
2023-05-10T23:05:32.653Z,15.80
2023-05-10T23:07:59.604Z,15.76
2023-05-10T23:10:26.940Z,15.84
2023-05-10T23:12:55.650Z,15.79
2023-05-10T23:15:22.848Z,15.31
2023-05-10T23:17:49.916Z,15.01
2023-05-10T23:20:17.212Z,14.66
2023-05-10T23:22:45.024Z,15.19
2023-05-10T23:25:12.092Z,15.49
2023-05-10T23:27:39.510Z,15.43
2023-05-10T23:30:07.245Z,15.28
2023-05-10T23:32:34.325Z,15.41
2023-05-10T23:35:01.301Z,15.57
2023-05-10T23:37:28.387Z,15.64
2023-05-10T23:39:55.440Z,15.53
2023-05-10T23:42:22.477Z,15.36
2023-05-10T23:44:50.981Z,15.54
2023-05-10T23:47:18.076Z,15.48
2023-05-10T23:49:45.168Z,15.67
2023-05-10T23:52:12.243Z,15.26
2023-05-10T23:54:39.401Z,15.38
2023-05-10T23:57:06.389Z,15.23
2023-05-10T23:59:33.354Z,14.86
